sensor_id;sensor_type;location;lat;lon;timestamp;pressure;altitude;pressure_sealevel;temperature;humidity
74346;BME280;62776;50.518;6.732;2023-04-24T00:00:06;95181.31;;;9.93;100.00
74346;BME280;62776;50.518;6.732;2023-04-24T00:02:52;95178.56;;;9.99;100.00
74346;BME280;62776;50.518;6.732;2023-04-24T00:05:42;95175.03;;;10.00;100.00
74346;BME280;62776;50.518;6.732;2023-04-24T00:08:30;95164.66;;;10.00;100.00
74346;BME280;62776;50.518;6.732;2023-04-24T00:11:16;95156.84;;;10.02;100.00
74346;BME280;62776;50.518;6.732;2023-04-24T00:14:03;95162.91;;;10.01;100.00
74346;BME280;62776;50.518;6.732;2023-04-24T00:16:49;95161.13;;;10.03;100.00
74346;BME280;62776;50.518;6.732;2023-04-24T00:19:38;95153.31;;;10.03;100.00
74346;BME280;62776;50.518;6.732;2023-04-24T00:22:25;95162.13;;;9.99;100.00
74346;BME280;62776;50.518;6.732;2023-04-24T00:25:15;95160.31;;;10.01;100.00
74346;BME280;62776;50.518;6.732;2023-04-24T00:28:01;95160.22;;;10.04;100.00
74346;BME280;62776;50.518;6.732;2023-04-24T00:30:53;95164.84;;;9.67;100.00
74346;BME280;62776;50.518;6.732;2023-04-24T00:33:42;95160.50;;;9.95;100.00
74346;BME280;62776;50.518;6.732;2023-04-24T00:36:31;95159.56;;;9.97;100.00
74346;BME280;62776;50.518;6.732;2023-04-24T00:39:19;95163.94;;;9.97;100.00
74346;BME280;62776;50.518;6.732;2023-04-24T00:42:06;95155.19;;;9.99;100.00
74346;BME280;62776;50.518;6.732;2023-04-24T00:44:55;95163.09;;;9.95;100.00
74346;BME280;62776;50.518;6.732;2023-04-24T00:47:48;95163.25;;;9.90;100.00
74346;BME280;62776;50.518;6.732;2023-04-24T00:50:38;95168.69;;;9.81;100.00
74346;BME280;62776;50.518;6.732;2023-04-24T00:53:25;95182.44;;;9.85;100.00
74346;BME280;62776;50.518;6.732;2023-04-24T00:56:14;95186.88;;;9.81;100.00
74346;BME280;62776;50.518;6.732;2023-04-24T00:59:02;95194.94;;;9.72;100.00
74346;BME280;62776;50.518;6.732;2023-04-24T01:01:50;95198.00;;;9.56;100.00
74346;BME280;62776;50.518;6.732;2023-04-24T01:04:38;95206.25;;;9.39;100.00
74346;BME280;62776;50.518;6.732;2023-04-24T01:07:25;95206.63;;;9.25;100.00
74346;BME280;62776;50.518;6.732;2023-04-24T01:10:13;95199.09;;;9.16;100.00
74346;BME280;62776;50.518;6.732;2023-04-24T01:12:59;95205.34;;;9.08;100.00
74346;BME280;62776;50.518;6.732;2023-04-24T01:15:48;95213.34;;;9.00;100.00
74346;BME280;62776;50.518;6.732;2023-04-24T01:18:35;95212.78;;;8.87;100.00
74346;BME280;62776;50.518;6.732;2023-04-24T01:21:21;95209.53;;;8.79;100.00
74346;BME280;62776;50.518;6.732;2023-04-24T01:24:09;95214.78;;;8.78;100.00
74346;BME280;62776;50.518;6.732;2023-04-24T01:26:58;95208.00;;;8.72;100.00
74346;BME280;62776;50.518;6.732;2023-04-24T01:29:46;95216.09;;;8.59;100.00
74346;BME280;62776;50.518;6.732;2023-04-24T01:32:33;95212.72;;;8.57;100.00
74346;BME280;62776;50.518;6.732;2023-04-24T01:35:21;95210.13;;;8.55;100.00
74346;BME280;62776;50.518;6.732;2023-04-24T01:38:09;95196.53;;;8.47;100.00
74346;BME280;62776;50.518;6.732;2023-04-24T01:40:56;95203.50;;;8.45;100.00
74346;BME280;62776;50.518;6.732;2023-04-24T01:43:43;95201.97;;;8.37;100.00
74346;BME280;62776;50.518;6.732;2023-04-24T01:46:36;95195.47;;;8.17;100.00
74346;BME280;62776;50.518;6.732;2023-04-24T01:49:26;95206.78;;;8.13;100.00
74346;BME280;62776;50.518;6.732;2023-04-24T01:52:12;95212.00;;;8.10;100.00
74346;BME280;62776;50.518;6.732;2023-04-24T01:55:03;95211.38;;;8.01;100.00
74346;BME280;62776;50.518;6.732;2023-04-24T01:57:52;95208.00;;;7.97;100.00
74346;BME280;62776;50.518;6.732;2023-04-24T02:00:38;95216.75;;;7.92;100.00
74346;BME280;62776;50.518;6.732;2023-04-24T02:03:26;95210.06;;;7.82;100.00
74346;BME280;62776;50.518;6.732;2023-04-24T02:06:12;95226.47;;;7.81;100.00
74346;BME280;62776;50.518;6.732;2023-04-24T02:08:59;95231.84;;;7.71;100.00
74346;BME280;62776;50.518;6.732;2023-04-24T02:11:45;95233.69;;;7.65;100.00
74346;BME280;62776;50.518;6.732;2023-04-24T02:14:32;95234.72;;;7.56;100.00
74346;BME280;62776;50.518;6.732;2023-04-24T02:17:19;95227.94;;;7.52;100.00
74346;BME280;62776;50.518;6.732;2023-04-24T02:20:07;95222.94;;;7.43;100.00
74346;BME280;62776;50.518;6.732;2023-04-24T02:22:54;95228.22;;;7.39;100.00
74346;BME280;62776;50.518;6.732;2023-04-24T02:25:41;95221.47;;;7.30;100.00
74346;BME280;62776;50.518;6.732;2023-04-24T02:28:30;95226.00;;;7.18;100.00
74346;BME280;62776;50.518;6.732;2023-04-24T02:31:18;95221.63;;;7.21;100.00
74346;BME280;62776;50.518;6.732;2023-04-24T02:34:06;95226.06;;;7.14;100.00
74346;BME280;62776;50.518;6.732;2023-04-24T02:36:55;95217.53;;;7.11;100.00
74346;BME280;62776;50.518;6.732;2023-04-24T02:39:46;95222.81;;;7.05;100.00
74346;BME280;62776;50.518;6.732;2023-04-24T02:42:32;95233.97;;;7.07;100.00
74346;BME280;62776;50.518;6.732;2023-04-24T02:45:18;95239.19;;;7.04;100.00
74346;BME280;62776;50.518;6.732;2023-04-24T02:48:05;95251.94;;;7.13;100.00
74346;BME280;62776;50.518;6.732;2023-04-24T02:50:51;95245.00;;;7.17;100.00
74346;BME280;62776;50.518;6.732;2023-04-24T02:53:38;95245.66;;;7.26;100.00
74346;BME280;62776;50.518;6.732;2023-04-24T02:56:26;95230.91;;;7.31;100.00
74346;BME280;62776;50.518;6.732;2023-04-24T02:59:15;95228.44;;;7.25;100.00
74346;BME280;62776;50.518;6.732;2023-04-24T03:02:01;95235.44;;;7.20;100.00
74346;BME280;62776;50.518;6.732;2023-04-24T03:04:55;95241.69;;;7.08;100.00
74346;BME280;62776;50.518;6.732;2023-04-24T03:07:41;95232.19;;;7.09;100.00
74346;BME280;62776;50.518;6.732;2023-04-24T03:10:28;95227.22;;;7.00;100.00
74346;BME280;62776;50.518;6.732;2023-04-24T03:13:16;95233.28;;;6.97;100.00
74346;BME280;62776;50.518;6.732;2023-04-24T03:16:05;95229.94;;;6.91;100.00
74346;BME280;62776;50.518;6.732;2023-04-24T03:18:51;95226.53;;;6.89;100.00
74346;BME280;62776;50.518;6.732;2023-04-24T03:21:39;95233.53;;;6.84;100.00
74346;BME280;62776;50.518;6.732;2023-04-24T03:24:26;95233.53;;;6.84;100.00
74346;BME280;62776;50.518;6.732;2023-04-24T03:27:13;95238.78;;;6.78;100.00
74346;BME280;62776;50.518;6.732;2023-04-24T03:30:00;95241.31;;;6.79;100.00
74346;BME280;62776;50.518;6.732;2023-04-24T03:32:47;95237.03;;;6.80;100.00
74346;BME280;62776;50.518;6.732;2023-04-24T03:35:34;95237.03;;;6.80;100.00
74346;BME280;62776;50.518;6.732;2023-04-24T03:38:20;95228.41;;;6.79;100.00
74346;BME280;62776;50.518;6.732;2023-04-24T03:41:10;95232.72;;;6.79;100.00
74346;BME280;62776;50.518;6.732;2023-04-24T03:43:56;95240.38;;;6.85;100.00
74346;BME280;62776;50.518;6.732;2023-04-24T03:46:42;95226.53;;;6.89;100.00
74346;BME280;62776;50.518;6.732;2023-04-24T03:49:36;95228.22;;;6.91;100.00
74346;BME280;62776;50.518;6.732;2023-04-24T03:52:30;95233.44;;;6.88;100.00
74346;BME280;62776;50.518;6.732;2023-04-24T03:55:17;95231.72;;;6.87;100.00
74346;BME280;62776;50.518;6.732;2023-04-24T03:58:04;95233.44;;;6.88;100.00
74346;BME280;62776;50.518;6.732;2023-04-24T04:00:51;95234.25;;;6.90;100.00
74346;BME280;62776;50.518;6.732;2023-04-24T04:03:38;95235.97;;;6.90;100.00
74346;BME280;62776;50.518;6.732;2023-04-24T04:06:24;95236.81;;;6.92;100.00
74346;BME280;62776;50.518;6.732;2023-04-24T04:09:11;95234.06;;;7.01;100.00
74346;BME280;62776;50.518;6.732;2023-04-24T04:11:57;95233.97;;;7.07;100.00
74346;BME280;62776;50.518;6.732;2023-04-24T04:14:43;95234.66;;;7.15;100.00
74346;BME280;62776;50.518;6.732;2023-04-24T04:17:30;95240.59;;;7.20;100.00
74346;BME280;62776;50.518;6.732;2023-04-24T04:20:18;95249.22;;;7.21;100.00
74346;BME280;62776;50.518;6.732;2023-04-24T04:23:06;95255.03;;;7.32;100.00
74346;BME280;62776;50.518;6.732;2023-04-24T04:25:59;95256.69;;;7.36;100.00
74346;BME280;62776;50.518;6.732;2023-04-24T04:28:46;95255.66;;;7.44;100.00
74346;BME280;62776;50.518;6.732;2023-04-24T04:31:34;95253.00;;;7.49;100.00
74346;BME280;62776;50.518;6.732;2023-04-24T04:34:22;95255.53;;;7.50;100.00
74346;BME280;62776;50.518;6.732;2023-04-24T04:37:14;95251.16;;;7.54;100.00
74346;BME280;62776;50.518;6.732;2023-04-24T04:40:03;95264.81;;;7.60;100.00
74346;BME280;62776;50.518;6.732;2023-04-24T04:42:55;95266.56;;;7.60;100.00
74346;BME280;62776;50.518;6.732;2023-04-24T04:45:42;95264.66;;;7.68;100.00
74346;BME280;62776;50.518;6.732;2023-04-24T04:48:30;95267.25;;;7.68;100.00
74346;BME280;62776;50.518;6.732;2023-04-24T04:51:19;95262.84;;;7.73;100.00
74346;BME280;62776;50.518;6.732;2023-04-24T04:54:12;95264.56;;;7.74;100.00
74346;BME280;62776;50.518;6.732;2023-04-24T04:57:05;95274.91;;;7.74;100.00
74346;BME280;62776;50.518;6.732;2023-04-24T04:59:53;95276.50;;;7.80;100.00
74346;BME280;62776;50.518;6.732;2023-04-24T05:02:40;95268.81;;;7.77;100.00
74346;BME280;62776;50.518;6.732;2023-04-24T05:05:27;95255.94;;;7.73;100.00
74346;BME280;62776;50.518;6.732;2023-04-24T05:08:15;95274.16;;;7.69;100.00
74346;BME280;62776;50.518;6.732;2023-04-24T05:11:01;95284.38;;;7.73;100.00
74346;BME280;62776;50.518;6.732;2023-04-24T05:13:48;95277.44;;;7.77;100.00
74346;BME280;62776;50.518;6.732;2023-04-24T05:16:34;95285.09;;;7.82;100.00
74346;BME280;62776;50.518;6.732;2023-04-24T05:19:22;95289.41;;;7.81;100.00
74346;BME280;62776;50.518;6.732;2023-04-24T05:22:09;95285.84;;;7.87;100.00
74346;BME280;62776;50.518;6.732;2023-04-24T05:25:02;95291.81;;;7.90;100.00
74346;BME280;62776;50.518;6.732;2023-04-24T05:27:51;95293.50;;;7.91;100.00
74346;BME280;62776;50.518;6.732;2023-04-24T05:30:40;95297.78;;;7.94;100.00
74346;BME280;62776;50.518;6.732;2023-04-24T05:33:27;95290.78;;;7.97;100.00
74346;BME280;62776;50.518;6.732;2023-04-24T05:36:14;95303.72;;;7.97;100.00
74346;BME280;62776;50.518;6.732;2023-04-24T05:39:00;95301.06;;;8.00;100.00
74346;BME280;62776;50.518;6.732;2023-04-24T05:41:47;95308.81;;;8.02;100.00
74346;BME280;62776;50.518;6.732;2023-04-24T05:44:33;95308.72;;;8.05;100.00
74346;BME280;62776;50.518;6.732;2023-04-24T05:47:19;95314.88;;;8.01;100.00
74346;BME280;62776;50.518;6.732;2023-04-24T05:50:09;95313.31;;;7.92;100.00
74346;BME280;62776;50.518;6.732;2023-04-24T05:52:55;95310.78;;;7.89;100.00
74346;BME280;62776;50.518;6.732;2023-04-24T05:55:44;95327.34;;;7.81;100.00
74346;BME280;62776;50.518;6.732;2023-04-24T05:58:30;95323.88;;;7.80;100.00
74346;BME280;62776;50.518;6.732;2023-04-24T06:01:18;95323.94;;;7.79;100.00
74346;BME280;62776;50.518;6.732;2023-04-24T06:04:05;95326.53;;;7.79;100.00
74346;BME280;62776;50.518;6.732;2023-04-24T06:07:00;95329.09;;;7.79;100.00
74346;BME280;62776;50.518;6.732;2023-04-24T06:09:47;95331.66;;;7.80;100.00
74346;BME280;62776;50.518;6.732;2023-04-24T06:12:35;95335.03;;;7.84;100.00
74346;BME280;62776;50.518;6.732;2023-04-24T06:15:24;95330.56;;;7.92;100.00
74346;BME280;62776;50.518;6.732;2023-04-24T06:18:12;95333.16;;;7.93;100.00
74346;BME280;62776;50.518;6.732;2023-04-24T06:21:07;95342.38;;;8.05;100.00
74346;BME280;62776;50.518;6.732;2023-04-24T06:24:07;95344.16;;;8.03;100.00
74346;BME280;62776;50.518;6.732;2023-04-24T06:26:54;95348.56;;;7.99;100.00
74346;BME280;62776;50.518;6.732;2023-04-24T06:29:43;95348.72;;;7.90;100.00
74346;BME280;62776;50.518;6.732;2023-04-24T06:32:32;95347.81;;;7.93;100.00
74346;BME280;62776;50.518;6.732;2023-04-24T06:35:18;95347.88;;;7.90;100.00
74346;BME280;62776;50.518;6.732;2023-04-24T06:38:13;95353.91;;;7.90;100.00
74346;BME280;62776;50.518;6.732;2023-04-24T06:41:00;95348.88;;;7.83;100.00
74346;BME280;62776;50.518;6.732;2023-04-24T06:43:46;95349.81;;;7.79;100.00
74346;BME280;62776;50.518;6.732;2023-04-24T06:46:34;95346.19;;;7.87;100.00
74346;BME280;62776;50.518;6.732;2023-04-24T06:49:21;95344.34;;;7.94;100.00
74346;BME280;62776;50.518;6.732;2023-04-24T06:52:22;95343.34;;;8.01;100.00
74346;BME280;62776;50.518;6.732;2023-04-24T06:55:12;95342.25;;;8.11;100.00
74346;BME280;62776;50.518;6.732;2023-04-24T06:57:59;95343.97;;;8.12;100.00
74346;BME280;62776;50.518;6.732;2023-04-24T07:00:45;95344.78;;;8.15;100.00
74346;BME280;62776;50.518;6.732;2023-04-24T07:03:34;95350.22;;;8.02;100.00
74346;BME280;62776;50.518;6.732;2023-04-24T07:06:21;95351.75;;;8.10;100.00
74346;BME280;62776;50.518;6.732;2023-04-24T07:09:08;95356.09;;;8.10;100.00
74346;BME280;62776;50.518;6.732;2023-04-24T07:11:56;95355.19;;;8.11;100.00
74346;BME280;62776;50.518;6.732;2023-04-24T07:14:43;95357.66;;;8.17;100.00
74346;BME280;62776;50.518;6.732;2023-04-24T07:17:29;95355.13;;;8.15;100.00
74346;BME280;62776;50.518;6.732;2023-04-24T07:20:17;95361.13;;;8.17;100.00
74346;BME280;62776;50.518;6.732;2023-04-24T07:23:03;95363.59;;;8.23;100.00
74346;BME280;62776;50.518;6.732;2023-04-24T07:25:55;95370.59;;;8.18;100.00
74346;BME280;62776;50.518;6.732;2023-04-24T07:28:43;95373.31;;;8.11;100.00
74346;BME280;62776;50.518;6.732;2023-04-24T07:31:30;95376.75;;;8.13;100.00
74346;BME280;62776;50.518;6.732;2023-04-24T07:34:18;95383.59;;;8.14;100.00
74346;BME280;62776;50.518;6.732;2023-04-24T07:37:11;95387.91;;;8.15;100.00
74346;BME280;62776;50.518;6.732;2023-04-24T07:39:58;95387.00;;;8.16;100.00
74346;BME280;62776;50.518;6.732;2023-04-24T07:42:50;95404.38;;;8.11;100.00
74346;BME280;62776;50.518;6.732;2023-04-24T07:45:37;95404.47;;;8.06;100.00
74346;BME280;62776;50.518;6.732;2023-04-24T07:48:24;95420.75;;;8.11;100.00
74346;BME280;62776;50.518;6.732;2023-04-24T07:51:21;95427.91;;;7.99;100.00
74346;BME280;62776;50.518;6.732;2023-04-24T07:54:08;95429.78;;;7.91;100.00
74346;BME280;62776;50.518;6.732;2023-04-24T07:56:54;95442.88;;;7.82;100.00
74346;BME280;62776;50.518;6.732;2023-04-24T07:59:48;95446.25;;;7.85;100.00
74346;BME280;62776;50.518;6.732;2023-04-24T08:02:38;95461.75;;;7.87;100.00
74346;BME280;62776;50.518;6.732;2023-04-24T08:05:31;95458.09;;;7.97;100.00
74346;BME280;62776;50.518;6.732;2023-04-24T08:08:29;95461.59;;;7.96;100.00
74346;BME280;62776;50.518;6.732;2023-04-24T08:11:16;95466.66;;;8.02;100.00
74346;BME280;62776;50.518;6.732;2023-04-24T08:14:05;95482.09;;;8.06;100.00
74346;BME280;62776;50.518;6.732;2023-04-24T08:16:56;95480.50;;;7.99;100.00
74346;BME280;62776;50.518;6.732;2023-04-24T08:19:42;95477.06;;;7.99;100.00
74346;BME280;62776;50.518;6.732;2023-04-24T08:22:33;95495.28;;;7.93;100.00
74346;BME280;62776;50.518;6.732;2023-04-24T08:25:21;95486.56;;;7.97;100.00
74346;BME280;62776;50.518;6.732;2023-04-24T08:28:17;95509.94;;;7.94;100.00
74346;BME280;62776;50.518;6.732;2023-04-24T08:31:14;95519.22;;;8.02;100.00
74346;BME280;62776;50.518;6.732;2023-04-24T08:34:02;95514.06;;;8.04;100.00
74346;BME280;62776;50.518;6.732;2023-04-24T08:36:47;95521.72;;;8.10;100.00
74346;BME280;62776;50.518;6.732;2023-04-24T08:39:36;95529.53;;;8.05;100.00
74346;BME280;62776;50.518;6.732;2023-04-24T08:42:22;95528.69;;;8.05;100.00
74346;BME280;62776;50.518;6.732;2023-04-24T08:45:10;95538.88;;;8.14;100.00
74346;BME280;62776;50.518;6.732;2023-04-24T08:48:03;95536.94;;;8.28;100.00
74346;BME280;62776;50.518;6.732;2023-04-24T08:50:53;95534.38;;;8.26;100.00
74346;BME280;62776;50.518;6.732;2023-04-24T08:53:40;95538.56;;;8.34;100.00
74346;BME280;62776;50.518;6.732;2023-04-24T08:56:27;95525.53;;;8.38;100.00
74346;BME280;62776;50.518;6.732;2023-04-24T08:59:17;95535.94;;;8.35;100.00
74346;BME280;62776;50.518;6.732;2023-04-24T09:02:12;95537.50;;;8.44;100.00
74346;BME280;62776;50.518;6.732;2023-04-24T09:05:03;95543.78;;;8.32;100.00
74346;BME280;62776;50.518;6.732;2023-04-24T09:07:54;95547.19;;;8.34;100.00
74346;BME280;62776;50.518;6.732;2023-04-24T09:10:44;95547.16;;;8.37;100.00
74346;BME280;62776;50.518;6.732;2023-04-24T09:13:32;95554.91;;;8.37;100.00
74346;BME280;62776;50.518;6.732;2023-04-24T09:16:20;95566.19;;;8.33;100.00
74346;BME280;62776;50.518;6.732;2023-04-24T09:19:21;95573.19;;;8.25;100.00
74346;BME280;62776;50.518;6.732;2023-04-24T09:22:11;95568.56;;;8.45;100.00
74346;BME280;62776;50.518;6.732;2023-04-24T09:25:06;95570.22;;;8.49;100.00
74346;BME280;62776;50.518;6.732;2023-04-24T09:28:04;95577.97;;;8.49;100.00
74346;BME280;62776;50.518;6.732;2023-04-24T09:31:11;95587.38;;;8.55;100.00
74346;BME280;62776;50.518;6.732;2023-04-24T09:34:05;95588.78;;;8.71;100.00
74346;BME280;62776;50.518;6.732;2023-04-24T09:37:00;95595.50;;;8.82;100.00
74346;BME280;62776;50.518;6.732;2023-04-24T09:40:08;95591.38;;;8.72;100.00
74346;BME280;62776;50.518;6.732;2023-04-24T09:42:56;95592.19;;;8.76;100.00
74346;BME280;62776;50.518;6.732;2023-04-24T09:45:46;95593.00;;;8.76;100.00
74346;BME280;62776;50.518;6.732;2023-04-24T09:48:35;95602.34;;;8.85;100.00
74346;BME280;62776;50.518;6.732;2023-04-24T09:51:35;95601.22;;;9.00;100.00
74346;BME280;62776;50.518;6.732;2023-04-24T09:54:31;95605.03;;;9.23;100.00
74346;BME280;62776;50.518;6.732;2023-04-24T09:57:19;95611.59;;;9.41;100.00
74346;BME280;62776;50.518;6.732;2023-04-24T10:00:08;95616.25;;;9.65;100.00
74346;BME280;62776;50.518;6.732;2023-04-24T10:03:01;95621.16;;;9.79;100.00
74346;BME280;62776;50.518;6.732;2023-04-24T10:05:47;95622.88;;;9.78;100.00
74346;BME280;62776;50.518;6.732;2023-04-24T10:08:36;95631.81;;;9.65;100.00
74346;BME280;62776;50.518;6.732;2023-04-24T10:11:25;95634.47;;;9.64;100.00
74346;BME280;62776;50.518;6.732;2023-04-24T10:14:20;95624.41;;;9.48;100.00
74346;BME280;62776;50.518;6.732;2023-04-24T10:17:10;95647.63;;;9.55;100.00
74346;BME280;62776;50.518;6.732;2023-04-24T10:20:06;95647.91;;;9.41;100.00
74346;BME280;62776;50.518;6.732;2023-04-24T10:22:55;95650.69;;;9.32;100.00
74346;BME280;62776;50.518;6.732;2023-04-24T10:25:42;95657.09;;;9.14;100.00
74346;BME280;62776;50.518;6.732;2023-04-24T10:28:33;95660.81;;;9.00;100.00
74346;BME280;62776;50.518;6.732;2023-04-24T10:31:23;95671.91;;;9.08;100.00
74346;BME280;62776;50.518;6.732;2023-04-24T10:34:12;95676.38;;;9.00;100.00
74346;BME280;62776;50.518;6.732;2023-04-24T10:37:03;95676.97;;;8.66;100.00
74346;BME280;62776;50.518;6.732;2023-04-24T10:39:56;95683.00;;;8.65;100.00
74346;BME280;62776;50.518;6.732;2023-04-24T10:42:43;95684.00;;;8.58;100.00
74346;BME280;62776;50.518;6.732;2023-04-24T10:45:34;95684.03;;;8.57;100.00
74346;BME280;62776;50.518;6.732;2023-04-24T10:48:26;95686.88;;;8.43;100.00
74346;BME280;62776;50.518;6.732;2023-04-24T10:51:16;95692.69;;;8.54;100.00
74346;BME280;62776;50.518;6.732;2023-04-24T11:00:24;95699.22;;;8.76;100.00
74346;BME280;62776;50.518;6.732;2023-04-24T11:03:26;95708.69;;;8.80;100.00
74346;BME280;62776;50.518;6.732;2023-04-24T11:06:13;95712.91;;;8.86;100.00
74346;BME280;62776;50.518;6.732;2023-04-24T11:09:10;95716.78;;;8.61;100.00
74346;BME280;62776;50.518;6.732;2023-04-24T11:12:15;95717.81;;;8.49;100.00
74346;BME280;62776;50.518;6.732;2023-04-24T11:15:11;95720.34;;;8.52;100.00
74346;BME280;62776;50.518;6.732;2023-04-24T11:17:58;95728.00;;;8.61;100.00
74346;BME280;62776;50.518;6.732;2023-04-24T11:20:45;95740.25;;;8.50;100.00
74346;BME280;62776;50.518;6.732;2023-04-24T11:23:36;95724.84;;;8.41;100.00
74346;BME280;62776;50.518;6.732;2023-04-24T11:26:23;95730.84;;;8.45;100.00
74346;BME280;62776;50.518;6.732;2023-04-24T11:29:16;95742.94;;;8.46;100.00
74346;BME280;62776;50.518;6.732;2023-04-24T11:35:23;95741.31;;;8.90;100.00
74346;BME280;62776;50.518;6.732;2023-04-24T11:38:11;95748.06;;;9.01;100.00
74346;BME280;62776;50.518;6.732;2023-04-24T11:41:00;95740.88;;;9.15;100.00
74346;BME280;62776;50.518;6.732;2023-04-24T11:43:49;95724.75;;;9.45;100.00
74346;BME280;62776;50.518;6.732;2023-04-24T11:46:36;95719.75;;;9.80;100.00
74346;BME280;62776;50.518;6.732;2023-04-24T11:49:24;95718.19;;;10.12;100.00
74346;BME280;62776;50.518;6.732;2023-04-24T11:52:17;95724.78;;;10.28;100.00
74346;BME280;62776;50.518;6.732;2023-04-24T11:55:28;95729.84;;;10.34;100.00
74346;BME280;62776;50.518;6.732;2023-04-24T11:58:13;95724.66;;;10.34;100.00
74346;BME280;62776;50.518;6.732;2023-04-24T12:01:01;95729.63;;;10.43;100.00
74346;BME280;62776;50.518;6.732;2023-04-24T12:03:51;95742.25;;;10.58;100.00
74346;BME280;62776;50.518;6.732;2023-04-24T12:07:03;95742.44;;;10.52;100.00
74346;BME280;62776;50.518;6.732;2023-04-24T12:09:58;95751.06;;;10.52;100.00
74346;BME280;62776;50.518;6.732;2023-04-24T12:12:47;95760.69;;;10.49;100.00
74346;BME280;62776;50.518;6.732;2023-04-24T12:15:40;95761.91;;;10.33;100.00
74346;BME280;62776;50.518;6.732;2023-04-24T12:18:27;95764.50;;;10.33;100.00
74346;BME280;62776;50.518;6.732;2023-04-24T12:21:19;95752.41;;;10.32;100.00
74346;BME280;62776;50.518;6.732;2023-04-24T12:24:07;95767.69;;;10.45;100.00
74346;BME280;62776;50.518;6.732;2023-04-24T12:26:54;95760.13;;;10.72;100.00
74346;BME280;62776;50.518;6.732;2023-04-24T12:29:55;95766.84;;;10.82;100.00
74346;BME280;62776;50.518;6.732;2023-04-24T12:32:46;95770.06;;;10.91;100.00
74346;BME280;62776;50.518;6.732;2023-04-24T12:35:33;95775.19;;;10.94;100.00
74346;BME280;62776;50.518;6.732;2023-04-24T12:38:25;95778.78;;;10.89;100.00
74346;BME280;62776;50.518;6.732;2023-04-24T12:41:13;95772.56;;;10.96;100.00
74346;BME280;62776;50.518;6.732;2023-04-24T12:44:01;95779.53;;;10.94;100.00
74346;BME280;62776;50.518;6.732;2023-04-24T12:46:47;95788.25;;;10.93;100.00
74346;BME280;62776;50.518;6.732;2023-04-24T12:49:33;95791.53;;;10.99;100.00
74346;BME280;62776;50.518;6.732;2023-04-24T12:52:20;95783.72;;;10.99;100.00
74346;BME280;62776;50.518;6.732;2023-04-24T12:55:10;95774.84;;;11.08;100.00
74346;BME280;62776;50.518;6.732;2023-04-24T12:57:58;95775.88;;;11.36;100.00
74346;BME280;62776;50.518;6.732;2023-04-24T13:00:46;95777.47;;;11.42;100.00
74346;BME280;62776;50.518;6.732;2023-04-24T13:03:32;95777.53;;;11.39;100.00
74346;BME280;62776;50.518;6.732;2023-04-24T13:06:19;95781.19;;;11.32;100.00
74346;BME280;62776;50.518;6.732;2023-04-24T13:09:13;95793.75;;;11.14;100.00
74346;BME280;62776;50.518;6.732;2023-04-24T13:12:02;95789.50;;;11.12;100.00
74346;BME280;62776;50.518;6.732;2023-04-24T13:14:49;95795.78;;;11.02;100.00
74346;BME280;62776;50.518;6.732;2023-04-24T13:17:37;95794.25;;;10.93;100.00
74346;BME280;62776;50.518;6.732;2023-04-24T13:20:24;95805.16;;;10.72;100.00
74346;BME280;62776;50.518;6.732;2023-04-24T13:23:13;95798.59;;;10.57;100.00
74346;BME280;62776;50.518;6.732;2023-04-24T13:26:05;95809.97;;;10.11;100.00
74346;BME280;62776;50.518;6.732;2023-04-24T13:28:52;95798.66;;;10.54;100.00
74346;BME280;62776;50.518;6.732;2023-04-24T13:31:39;95795.63;;;10.73;100.00
74346;BME280;62776;50.518;6.732;2023-04-24T13:34:27;95803.38;;;10.74;100.00
74346;BME280;62776;50.518;6.732;2023-04-24T13:37:14;95794.59;;;10.80;100.00
74346;BME280;62776;50.518;6.732;2023-04-24T13:40:07;95796.97;;;10.89;100.00
74346;BME280;62776;50.518;6.732;2023-04-24T13:42:54;95800.31;;;10.94;100.00
74346;BME280;62776;50.518;6.732;2023-04-24T13:45:42;95795.91;;;10.97;100.00
74346;BME280;62776;50.518;6.732;2023-04-24T13:48:30;95795.09;;;10.95;100.00
74346;BME280;62776;50.518;6.732;2023-04-24T13:51:16;95797.19;;;11.16;100.00
74346;BME280;62776;50.518;6.732;2023-04-24T13:54:03;95797.69;;;11.63;100.00
74346;BME280;62776;50.518;6.732;2023-04-24T13:56:51;95792.06;;;11.81;100.00
74346;BME280;62776;50.518;6.732;2023-04-24T13:59:37;95797.47;;;12.04;100.00
74346;BME280;62776;50.518;6.732;2023-04-24T14:02:25;95796.97;;;12.79;100.00
74346;BME280;62776;50.518;6.732;2023-04-24T14:05:14;95807.41;;;13.07;96.11
74346;BME280;62776;50.518;6.732;2023-04-24T14:08:02;95804.25;;;12.96;90.12
74346;BME280;62776;50.518;6.732;2023-04-24T14:10:52;95799.31;;;12.87;90.08
74346;BME280;62776;50.518;6.732;2023-04-24T14:13:43;95797.47;;;13.44;86.56
74346;BME280;62776;50.518;6.732;2023-04-24T14:16:32;95798.66;;;13.60;79.80
74346;BME280;62776;50.518;6.732;2023-04-24T14:19:19;95799.34;;;13.15;88.90
74346;BME280;62776;50.518;6.732;2023-04-24T14:22:06;95791.50;;;12.59;86.54
74346;BME280;62776;50.518;6.732;2023-04-24T14:24:52;95806.38;;;12.26;90.41
74346;BME280;62776;50.518;6.732;2023-04-24T14:27:39;95803.47;;;12.06;95.44
74346;BME280;62776;50.518;6.732;2023-04-24T14:30:26;95812.97;;;11.78;99.12
74346;BME280;62776;50.518;6.732;2023-04-24T14:33:14;95798.78;;;12.19;100.00
74346;BME280;62776;50.518;6.732;2023-04-24T14:36:01;95791.84;;;13.81;99.21
74346;BME280;62776;50.518;6.732;2023-04-24T14:38:49;95797.78;;;13.09;98.98
74346;BME280;62776;50.518;6.732;2023-04-24T14:41:36;95782.22;;;13.82;91.59
74346;BME280;62776;50.518;6.732;2023-04-24T14:44:24;95779.59;;;14.98;81.49
74346;BME280;62776;50.518;6.732;2023-04-24T14:47:11;95785.81;;;16.58;69.61
74346;BME280;62776;50.518;6.732;2023-04-24T14:50:04;95783.91;;;17.52;58.02
74346;BME280;62776;50.518;6.732;2023-04-24T14:52:51;95770.88;;;18.35;54.32
74346;BME280;62776;50.518;6.732;2023-04-24T14:55:40;95757.19;;;18.76;50.66
74346;BME280;62776;50.518;6.732;2023-04-24T14:58:27;95775.91;;;19.03;48.89
74346;BME280;62776;50.518;6.732;2023-04-24T15:01:15;95779.50;;;19.48;47.64